Time;durP1;ratioP1;P1;durP2;ratioP2;P2;SDS_P1;SDS_P2;PMS_P1;PMS_P2;Temp;Humidity;BMP_temperature;BMP_pressure;BME280_temperature;BME280_humidity;BME280_pressure;Samples;Min_cycle;Max_cycle;Signal;HPM_P1;HPM_P2
2022/09/16 00:02:16;;;;;;;6.90;4.20;;;;;;;;;;110128;1250;36773;-28
2022/09/16 00:04:47;;;;;;;6.00;4.20;;;;;;;;;;110154;1249;36910;-27
2022/09/16 00:07:19;;;;;;;8.00;4.10;;;;;;;;;;110115;1249;35846;-28
2022/09/16 00:09:49;;;;;;;6.60;4.10;;;;;;;;;;110162;1249;36331;-28
2022/09/16 00:12:20;;;;;;;5.90;4.00;;;;;;;;;;110191;1249;36446;-27
2022/09/16 00:14:53;;;;;;;5.90;3.60;;;;;;;;;;110098;1250;36373;-32
2022/09/16 00:17:25;;;;;;;6.20;3.90;;;;;;;;;;110163;1250;37253;-32
2022/09/16 00:19:58;;;;;;;6.50;4.00;;;;;;;;;;110322;1250;35575;-32
2022/09/16 00:22:31;;;;;;;6.30;3.80;;;;;;;;;;110145;1250;36477;-32
2022/09/16 00:25:02;;;;;;;6.20;4.00;;;;;;;;;;110106;1250;37213;-32
2022/09/16 00:27:34;;;;;;;6.30;3.80;;;;;;;;;;110118;1250;36462;-31
2022/09/16 00:30:06;;;;;;;6.90;3.70;;;;;;;;;;110169;1251;36529;-31
2022/09/16 00:32:37;;;;;;;5.20;3.40;;;;;;;;;;110469;1249;36522;-32
2022/09/16 00:35:09;;;;;;;5.70;3.60;;;;;;;;;;110488;1249;33985;-30
2022/09/16 00:37:39;;;;;;;5.30;3.60;;;;;;;;;;110259;1250;36409;-30
2022/09/16 00:40:12;;;;;;;5.70;3.60;;;;;;;;;;110260;1249;36572;-29
2022/09/16 00:42:43;;;;;;;7.70;3.40;;;;;;;;;;110263;1250;36388;-29
2022/09/16 00:45:19;;;;;;;5.10;3.20;;;;;;;;;;110211;1250;34361;-29
2022/09/16 00:47:53;;;;;;;6.30;3.70;;;;;;;;;;110350;1249;36893;-29
2022/09/16 00:50:29;;;;;;;5.50;3.40;;;;;;;;;;110225;1249;36524;-29
2022/09/16 00:53:01;;;;;;;6.20;3.40;;;;;;;;;;110195;1249;36382;-29
2022/09/16 00:55:35;;;;;;;6.20;3.30;;;;;;;;;;110253;1249;36999;-29
2022/09/16 00:58:12;;;;;;;5.60;3.60;;;;;;;;;;110182;1250;41523;-29
2022/09/16 01:00:46;;;;;;;5.10;3.20;;;;;;;;;;110228;1250;35311;-29
2022/09/16 01:03:17;;;;;;;5.60;3.50;;;;;;;;;;110227;1250;36403;-29
2022/09/16 01:05:49;;;;;;;5.90;3.20;;;;;;;;;;110249;1250;36809;-28
2022/09/16 01:08:20;;;;;;;4.80;3.20;;;;;;;;;;110260;1250;33679;-29
2022/09/16 01:10:51;;;;;;;5.70;3.30;;;;;;;;;;110288;1249;36384;-29
2022/09/16 01:13:24;;;;;;;6.00;3.70;;;;;;;;;;110177;1251;37199;-29
2022/09/16 01:16:06;;;;;;;4.80;2.80;;;;;;;;;;110163;1251;36810;-29
2022/09/16 01:18:45;;;;;;;5.30;3.20;;;;;;;;;;110182;1249;36432;-29
2022/09/16 01:21:25;;;;;;;6.00;3.20;;;;;;;;;;110253;1249;35127;-29
2022/09/16 01:24:16;;;;;;;5.30;3.00;;;;;;;;;;110250;1250;34609;-29
2022/09/16 01:27:18;;;;;;;4.60;3.00;;;;;;;;;;110217;1250;37450;-29
2022/09/16 01:30:10;;;;;;;5.00;3.10;;;;;;;;;;110274;1249;34900;-29
2022/09/16 01:32:53;;;;;;;5.50;3.30;;;;;;;;;;110230;1250;35232;-29
2022/09/16 01:35:35;;;;;;;5.40;3.30;;;;;;;;;;110225;1250;36931;-29
2022/09/16 01:38:17;;;;;;;5.40;3.10;;;;;;;;;;110175;1249;36701;-29
2022/09/16 01:40:57;;;;;;;4.90;3.00;;;;;;;;;;110230;1250;36773;-29
2022/09/16 01:43:38;;;;;;;5.30;3.50;;;;;;;;;;110248;1249;36884;-29
2022/09/16 01:46:19;;;;;;;5.70;3.20;;;;;;;;;;110220;1249;36610;-29
2022/09/16 01:48:56;;;;;;;5.40;3.10;;;;;;;;;;110204;1250;37202;-29
2022/09/16 01:51:32;;;;;;;5.40;3.00;;;;;;;;;;110268;1249;35657;-28
2022/09/16 01:54:10;;;;;;;6.70;3.40;;;;;;;;;;110241;1250;36888;-28
2022/09/16 01:56:46;;;;;;;4.90;3.20;;;;;;;;;;110225;1249;37218;-28
2022/09/16 01:59:22;;;;;;;5.50;3.40;;;;;;;;;;110205;1249;36913;-28
2022/09/16 02:01:58;;;;;;;6.00;3.20;;;;;;;;;;110240;1249;33876;-28
2022/09/16 02:04:32;;;;;;;5.10;3.00;;;;;;;;;;110214;1249;36377;-28
2022/09/16 02:07:08;;;;;;;4.80;3.10;;;;;;;;;;110218;1250;37239;-28
2022/09/16 02:09:47;;;;;;;5.20;3.00;;;;;;;;;;110163;1249;35145;-28
2022/09/16 02:12:21;;;;;;;5.40;3.00;;;;;;;;;;110239;1250;35142;-28
2022/09/16 02:15:00;;;;;;;5.30;3.00;;;;;;;;;;110203;1249;37317;-28
2022/09/16 02:17:36;;;;;;;5.10;3.30;;;;;;;;;;110205;1249;36393;-28
2022/09/16 02:20:10;;;;;;;4.30;2.80;;;;;;;;;;110210;1249;37707;-28
2022/09/16 02:22:47;;;;;;;4.30;2.80;;;;;;;;;;110220;1249;37108;-28
2022/09/16 02:25:19;;;;;;;5.70;3.00;;;;;;;;;;110205;1249;36884;-28
2022/09/16 02:27:51;;;;;;;4.40;2.70;;;;;;;;;;110206;1249;37285;-28
2022/09/16 02:30:23;;;;;;;4.60;2.90;;;;;;;;;;110204;1249;43308;-28
2022/09/16 02:33:00;;;;;;;4.90;2.90;;;;;;;;;;110236;1249;35236;-28
2022/09/16 02:35:37;;;;;;;5.10;2.70;;;;;;;;;;110217;1250;36436;-28
2022/09/16 02:38:12;;;;;;;5.20;3.10;;;;;;;;;;110184;1250;36506;-28
2022/09/16 02:40:51;;;;;;;4.90;2.60;;;;;;;;;;110209;1250;36818;-28
2022/09/16 02:43:22;;;;;;;4.60;2.40;;;;;;;;;;110240;1250;36697;-28
2022/09/16 02:46:06;;;;;;;5.10;2.70;;;;;;;;;;110205;1250;35132;-28
2022/09/16 02:48:48;;;;;;;5.00;2.70;;;;;;;;;;110180;1250;34949;-28
2022/09/16 02:51:27;;;;;;;4.60;2.50;;;;;;;;;;110215;1250;34905;-28
2022/09/16 02:54:02;;;;;;;4.40;2.60;;;;;;;;;;110237;1249;35258;-28
2022/09/16 02:56:38;;;;;;;5.90;2.80;;;;;;;;;;110256;1249;36808;-28
2022/09/16 02:59:11;;;;;;;4.90;2.50;;;;;;;;;;110170;1250;36773;-28
2022/09/16 03:01:44;;;;;;;4.80;2.50;;;;;;;;;;110231;1250;36984;-28
2022/09/16 03:04:17;;;;;;;4.70;2.50;;;;;;;;;;110248;1249;36518;-28
2022/09/16 03:06:49;;;;;;;4.60;2.70;;;;;;;;;;110236;1249;36399;-28
2022/09/16 03:09:22;;;;;;;4.80;2.60;;;;;;;;;;110191;1249;36738;-28
2022/09/16 03:12:43;;;;;;;4.20;2.50;;;;;;;;;;110208;1249;35034;-28
2022/09/16 03:15:50;;;;;;;6.00;2.80;;;;;;;;;;110202;1250;36807;-28
2022/09/16 03:18:49;;;;;;;4.10;2.30;;;;;;;;;;110106;1250;34322;-28
2022/09/16 03:21:29;;;;;;;4.50;2.70;;;;;;;;;;110158;1250;34881;-28
2022/09/16 03:24:11;;;;;;;5.30;2.20;;;;;;;;;;110263;1250;36828;-28
2022/09/16 03:26:49;;;;;;;5.20;2.60;;;;;;;;;;110251;1250;37431;-29
2022/09/16 03:29:31;;;;;;;4.50;2.50;;;;;;;;;;110229;1250;36751;-29
2022/09/16 03:32:10;;;;;;;5.10;2.70;;;;;;;;;;110262;1250;36931;-27
2022/09/16 03:34:45;;;;;;;4.10;2.00;;;;;;;;;;110242;1250;34016;-27
2022/09/16 03:37:19;;;;;;;4.10;2.20;;;;;;;;;;110226;1250;36859;-27
2022/09/16 03:39:53;;;;;;;4.30;2.30;;;;;;;;;;110207;1249;36361;-27
2022/09/16 03:42:23;;;;;;;4.30;2.20;;;;;;;;;;110238;1250;36802;-27
2022/09/16 03:44:54;;;;;;;4.60;2.60;;;;;;;;;;110225;1250;37216;-27
2022/09/16 03:47:25;;;;;;;5.30;2.50;;;;;;;;;;110130;1250;36404;-27
2022/09/16 03:49:56;;;;;;;4.10;2.40;;;;;;;;;;110188;1250;36650;-27
2022/09/16 03:52:27;;;;;;;4.50;2.30;;;;;;;;;;110196;1250;34935;-27
2022/09/16 03:54:58;;;;;;;4.10;2.40;;;;;;;;;;110250;1249;34347;-27
2022/09/16 03:57:29;;;;;;;4.40;2.70;;;;;;;;;;110223;1250;36400;-27
2022/09/16 04:00:01;;;;;;;4.30;2.20;;;;;;;;;;110209;1250;36863;-27
2022/09/16 04:02:32;;;;;;;4.40;2.10;;;;;;;;;;110224;1250;36754;-27
2022/09/16 04:05:13;;;;;;;5.00;2.40;;;;;;;;;;110236;1250;37349;-27
2022/09/16 04:07:44;;;;;;;4.20;2.20;;;;;;;;;;110247;1250;36335;-27
2022/09/16 04:10:15;;;;;;;4.00;2.30;;;;;;;;;;110214;1250;36731;-27
2022/09/16 04:12:45;;;;;;;4.40;2.60;;;;;;;;;;110200;1250;37010;-27
2022/09/16 04:15:18;;;;;;;4.30;2.40;;;;;;;;;;110261;1249;37154;-27
2022/09/16 04:17:49;;;;;;;4.50;2.60;;;;;;;;;;110236;1250;36352;-27
2022/09/16 04:20:20;;;;;;;5.40;2.30;;;;;;;;;;110215;1249;36412;-27
2022/09/16 04:22:52;;;;;;;4.20;2.00;;;;;;;;;;110222;1250;37024;-27
2022/09/16 04:25:23;;;;;;;4.30;2.20;;;;;;;;;;110252;1249;37203;-27
2022/09/16 04:27:54;;;;;;;4.50;2.40;;;;;;;;;;110233;1250;33908;-27
2022/09/16 04:30:26;;;;;;;4.10;2.10;;;;;;;;;;110187;1250;36346;-27
2022/09/16 04:32:57;;;;;;;4.60;2.40;;;;;;;;;;110219;1250;36348;-27
2022/09/16 04:35:28;;;;;;;4.90;2.40;;;;;;;;;;110223;1249;36406;-27
2022/09/16 04:37:58;;;;;;;3.60;2.10;;;;;;;;;;110212;1249;35151;-27
2022/09/16 04:40:29;;;;;;;6.50;2.60;;;;;;;;;;110206;1249;36918;-27
2022/09/16 04:43:00;;;;;;;4.70;2.50;;;;;;;;;;110079;1249;39657;-27
2022/09/16 04:45:31;;;;;;;5.10;2.40;;;;;;;;;;110214;1249;36415;-27
2022/09/16 04:48:03;;;;;;;4.60;2.50;;;;;;;;;;110203;1250;36873;-27
2022/09/16 04:50:34;;;;;;;4.60;2.50;;;;;;;;;;110247;1249;36854;-27
2022/09/16 04:53:05;;;;;;;5.20;2.70;;;;;;;;;;110192;1250;37020;-27
2022/09/16 04:55:36;;;;;;;5.00;2.40;;;;;;;;;;110207;1250;36483;-27
2022/09/16 04:58:07;;;;;;;4.50;2.20;;;;;;;;;;110202;1249;36738;-27
2022/09/16 05:00:38;;;;;;;4.90;2.20;;;;;;;;;;110228;1250;36907;-27
2022/09/16 05:03:09;;;;;;;4.60;2.20;;;;;;;;;;110179;1250;38487;-27
2022/09/16 05:05:42;;;;;;;5.40;2.50;;;;;;;;;;110222;1250;36864;-27
2022/09/16 05:08:16;;;;;;;4.90;2.40;;;;;;;;;;110203;1249;36832;-27
2022/09/16 05:10:47;;;;;;;4.60;2.20;;;;;;;;;;110223;1249;35110;-27
2022/09/16 05:13:18;;;;;;;6.10;2.20;;;;;;;;;;110193;1250;36748;-27
2022/09/16 05:15:49;;;;;;;4.30;2.30;;;;;;;;;;110238;1249;36397;-27
2022/09/16 05:18:20;;;;;;;4.80;2.20;;;;;;;;;;110246;1249;36744;-27
2022/09/16 05:20:56;;;;;;;5.00;2.20;;;;;;;;;;110228;1250;33601;-27
2022/09/16 05:23:27;;;;;;;4.10;2.20;;;;;;;;;;110176;1250;36322;-27
2022/09/16 05:26:04;;;;;;;4.70;2.10;;;;;;;;;;110214;1250;36339;-27
2022/09/16 05:28:38;;;;;;;4.20;2.30;;;;;;;;;;110245;1250;36978;-27
2022/09/16 05:31:15;;;;;;;4.30;2.40;;;;;;;;;;110208;1249;36735;-27
2022/09/16 05:33:47;;;;;;;4.20;2.30;;;;;;;;;;110172;1250;34006;-27
2022/09/16 05:36:19;;;;;;;4.00;2.10;;;;;;;;;;110235;1250;36569;-27
2022/09/16 05:38:50;;;;;;;3.90;2.10;;;;;;;;;;110227;1250;36730;-27
2022/09/16 05:41:21;;;;;;;4.00;2.00;;;;;;;;;;110250;1250;36758;-27
2022/09/16 05:43:53;;;;;;;5.20;2.30;;;;;;;;;;110207;1250;37908;-27
2022/09/16 05:46:25;;;;;;;5.20;2.10;;;;;;;;;;110235;1250;36387;-28
2022/09/16 05:48:56;;;;;;;3.50;2.00;;;;;;;;;;110221;1250;36718;-28
2022/09/16 05:51:27;;;;;;;4.60;2.10;;;;;;;;;;110210;1250;37120;-28
2022/09/16 05:53:58;;;;;;;4.20;2.00;;;;;;;;;;110201;1250;35098;-28
2022/09/16 05:56:31;;;;;;;4.20;1.90;;;;;;;;;;110223;1250;36797;-28
2022/09/16 05:59:02;;;;;;;4.50;1.90;;;;;;;;;;110288;1250;35031;-28
2022/09/16 06:01:35;;;;;;;5.90;2.10;;;;;;;;;;110213;1249;37080;-28
2022/09/16 06:04:07;;;;;;;4.90;2.20;;;;;;;;;;110208;1250;36505;-28
2022/09/16 06:06:40;;;;;;;7.00;2.80;;;;;;;;;;110247;1250;36895;-28
2022/09/16 06:09:12;;;;;;;5.20;2.40;;;;;;;;;;110270;1249;36834;-28
2022/09/16 06:11:45;;;;;;;4.10;1.90;;;;;;;;;;110222;1250;36413;-28
2022/09/16 06:14:17;;;;;;;5.70;1.90;;;;;;;;;;110202;1250;36464;-28
2022/09/16 06:16:48;;;;;;;5.00;2.20;;;;;;;;;;110274;1249;36528;-28
2022/09/16 06:19:19;;;;;;;4.70;1.90;;;;;;;;;;110206;1250;36783;-28
2022/09/16 06:21:51;;;;;;;4.10;1.90;;;;;;;;;;110222;1250;36393;-28
2022/09/16 06:24:22;;;;;;;4.50;1.80;;;;;;;;;;110178;1249;36863;-28
2022/09/16 06:26:53;;;;;;;5.80;2.10;;;;;;;;;;109790;1249;577626;-28
2022/09/16 06:29:25;;;;;;;4.60;1.80;;;;;;;;;;110237;1250;36773;-28
2022/09/16 06:31:56;;;;;;;5.00;1.60;;;;;;;;;;110249;1249;34890;-29
2022/09/16 06:34:29;;;;;;;3.90;1.80;;;;;;;;;;110179;1250;36779;-29
2022/09/16 06:37:00;;;;;;;4.40;1.50;;;;;;;;;;110229;1250;37183;-29
2022/09/16 06:39:31;;;;;;;4.10;1.60;;;;;;;;;;110179;1250;36390;-29
2022/09/16 06:42:06;;;;;;;4.20;1.80;;;;;;;;;;110223;1249;36738;-29
2022/09/16 06:44:39;;;;;;;4.50;1.80;;;;;;;;;;110213;1249;36385;-29
2022/09/16 06:47:10;;;;;;;4.50;1.70;;;;;;;;;;110241;1250;36376;-29
2022/09/16 06:49:42;;;;;;;4.50;1.60;;;;;;;;;;110195;1249;36942;-29
2022/09/16 06:52:13;;;;;;;3.70;1.80;;;;;;;;;;110257;1250;36748;-29
2022/09/16 06:54:43;;;;;;;3.80;1.60;;;;;;;;;;110192;1249;36853;-29
2022/09/16 06:57:14;;;;;;;4.40;1.60;;;;;;;;;;110296;1249;33721;-29
2022/09/16 06:59:46;;;;;;;4.20;1.60;;;;;;;;;;110297;1250;34812;-29
2022/09/16 07:02:17;;;;;;;4.50;1.90;;;;;;;;;;110184;1250;36765;-30
2022/09/16 07:04:48;;;;;;;5.00;1.50;;;;;;;;;;110156;1250;35165;-30
2022/09/16 07:07:21;;;;;;;4.50;1.50;;;;;;;;;;110213;1250;36333;-30
2022/09/16 07:09:52;;;;;;;5.60;1.50;;;;;;;;;;110192;1250;33979;-30
2022/09/16 07:12:23;;;;;;;4.20;1.40;;;;;;;;;;110211;1250;37057;-30
2022/09/16 07:14:54;;;;;;;4.40;1.40;;;;;;;;;;110204;1250;36666;-28
2022/09/16 07:17:27;;;;;;;;;;;;;;;;;;110278;1250;37386;-29
2022/09/16 07:19:58;;;;;;;2.90;1.20;;;;;;;;;;110220;1250;34744;-29
2022/09/16 07:22:32;;;;;;;3.20;1.30;;;;;;;;;;110224;1250;36915;-29
2022/09/16 07:25:02;;;;;;;3.50;1.40;;;;;;;;;;110203;1250;36902;-29
2022/09/16 07:27:33;;;;;;;3.50;1.40;;;;;;;;;;110240;1249;37030;-29
2022/09/16 07:30:05;;;;;;;3.40;1.30;;;;;;;;;;110214;1249;36869;-29
2022/09/16 07:32:37;;;;;;;2.70;1.10;;;;;;;;;;110220;1250;36735;-29
2022/09/16 07:35:09;;;;;;;3.20;1.00;;;;;;;;;;110194;1250;36448;-29
2022/09/16 07:37:40;;;;;;;3.60;1.30;;;;;;;;;;110241;1250;36840;-29
2022/09/16 07:40:12;;;;;;;2.90;1.00;;;;;;;;;;110209;1249;36962;-29
2022/09/16 07:42:43;;;;;;;3.40;1.10;;;;;;;;;;110211;1249;36474;-29
2022/09/16 07:45:15;;;;;;;4.00;1.30;;;;;;;;;;110209;1250;36854;-29
2022/09/16 07:47:50;;;;;;;2.30;1.10;;;;;;;;;;110237;1250;37048;-29
2022/09/16 07:50:20;;;;;;;3.50;1.10;;;;;;;;;;110237;1250;35498;-29
2022/09/16 07:52:55;;;;;;;3.40;1.10;;;;;;;;;;110217;1250;36328;-29
2022/09/16 07:55:26;;;;;;;2.80;1.00;;;;;;;;;;110167;1250;34150;-29
2022/09/16 07:57:57;;;;;;;3.20;1.00;;;;;;;;;;110236;1250;36969;-29
2022/09/16 08:00:28;;;;;;;4.10;1.20;;;;;;;;;;110231;1250;36847;-29
2022/09/16 08:02:59;;;;;;;2.30;0.80;;;;;;;;;;110228;1250;36184;-29
2022/09/16 08:05:30;;;;;;;3.20;0.90;;;;;;;;;;110188;1249;36709;-29
2022/09/16 08:08:01;;;;;;;2.70;1.00;;;;;;;;;;110178;1250;34760;-29
2022/09/16 08:10:32;;;;;;;3.10;1.00;;;;;;;;;;110213;1250;33882;-29
2022/09/16 08:13:02;;;;;;;3.70;1.00;;;;;;;;;;110196;1250;35113;-29
2022/09/16 08:15:33;;;;;;;2.50;1.00;;;;;;;;;;110175;1249;36827;-29
2022/09/16 08:18:04;;;;;;;3.30;0.90;;;;;;;;;;110224;1250;36755;-29
2022/09/16 08:20:36;;;;;;;2.30;0.70;;;;;;;;;;110258;1249;36412;-29
2022/09/16 08:23:07;;;;;;;3.80;1.00;;;;;;;;;;110218;1249;36728;-29
2022/09/16 08:25:37;;;;;;;2.80;0.80;;;;;;;;;;110187;1249;36461;-29
2022/09/16 08:28:14;;;;;;;2.50;0.90;;;;;;;;;;110258;1250;37007;-29
2022/09/16 08:30:45;;;;;;;1.90;0.70;;;;;;;;;;110223;1249;34120;-29
2022/09/16 08:33:19;;;;;;;2.80;0.70;;;;;;;;;;110218;1250;36527;-29
2022/09/16 08:35:59;;;;;;;2.70;0.80;;;;;;;;;;110194;1250;36798;-29
2022/09/16 08:38:31;;;;;;;3.00;1.50;;;;;;;;;;110280;1250;34131;-29
2022/09/16 08:41:07;;;;;;;3.80;0.90;;;;;;;;;;110244;1250;36298;-29
2022/09/16 08:43:44;;;;;;;3.00;0.90;;;;;;;;;;110238;1250;37325;-29
2022/09/16 08:46:20;;;;;;;4.00;0.80;;;;;;;;;;110194;1249;36856;-29
2022/09/16 08:48:56;;;;;;;3.10;0.70;;;;;;;;;;110209;1250;36466;-29
2022/09/16 08:51:28;;;;;;;2.80;0.90;;;;;;;;;;110226;1249;36805;-29
2022/09/16 08:54:01;;;;;;;2.50;0.80;;;;;;;;;;110237;1250;36363;-29
2022/09/16 08:56:35;;;;;;;3.00;0.80;;;;;;;;;;110174;1250;36311;-29
2022/09/16 08:59:13;;;;;;;3.20;0.90;;;;;;;;;;110229;1249;36438;-29
2022/09/16 09:01:50;;;;;;;2.20;0.90;;;;;;;;;;110232;1249;36902;-29
2022/09/16 09:04:20;;;;;;;3.00;0.70;;;;;;;;;;110216;1249;36749;-29
2022/09/16 09:07:01;;;;;;;2.40;0.80;;;;;;;;;;110192;1250;35073;-29
2022/09/16 09:09:46;;;;;;;2.90;0.60;;;;;;;;;;110196;1250;37221;-29
2022/09/16 09:12:24;;;;;;;2.70;0.70;;;;;;;;;;110207;1249;36994;-29
2022/09/16 09:15:06;;;;;;;3.10;0.70;;;;;;;;;;110242;1250;36566;-29
2022/09/16 09:17:50;;;;;;;3.00;0.80;;;;;;;;;;110181;1250;36840;-29
2022/09/16 09:20:35;;;;;;;3.00;0.90;;;;;;;;;;110266;1250;36362;-29
2022/09/16 09:23:23;;;;;;;1.70;0.60;;;;;;;;;;110217;1250;36831;-29
2022/09/16 09:25:58;;;;;;;2.10;0.60;;;;;;;;;;110209;1250;33684;-29
2022/09/16 09:29:03;;;;;;;2.50;0.50;;;;;;;;;;110176;1250;36764;-29
2022/09/16 09:31:43;;;;;;;1.20;0.50;;;;;;;;;;110208;1250;36332;-29
2022/09/16 09:34:28;;;;;;;3.70;0.90;;;;;;;;;;110204;1249;36291;-29
2022/09/16 09:37:17;;;;;;;2.80;0.80;;;;;;;;;;110176;1250;36862;-29
2022/09/16 09:39:56;;;;;;;2.70;0.50;;;;;;;;;;110219;1249;36982;-29
2022/09/16 09:42:31;;;;;;;3.10;1.00;;;;;;;;;;110241;1249;36629;-29
2022/09/16 09:45:13;;;;;;;3.80;0.70;;;;;;;;;;110222;1250;36771;-29
2022/09/16 09:47:47;;;;;;;2.60;0.70;;;;;;;;;;110205;1249;36469;-29
2022/09/16 09:50:23;;;;;;;3.00;0.70;;;;;;;;;;110235;1250;36879;-29
2022/09/16 09:53:02;;;;;;;3.80;0.80;;;;;;;;;;110211;1249;37004;-29
2022/09/16 09:55:35;;;;;;;2.70;0.60;;;;;;;;;;110237;1250;36827;-29
2022/09/16 09:58:24;;;;;;;2.20;0.50;;;;;;;;;;110170;1250;35234;-29
2022/09/16 10:00:57;;;;;;;2.50;0.70;;;;;;;;;;110204;1250;36800;-29
2022/09/16 10:03:29;;;;;;;3.20;0.70;;;;;;;;;;110235;1250;36323;-29
2022/09/16 10:06:00;;;;;;;3.30;0.70;;;;;;;;;;110214;1250;36780;-29
2022/09/16 10:08:36;;;;;;;2.30;0.70;;;;;;;;;;110187;1250;36374;-31
2022/09/16 10:11:18;;;;;;;2.30;0.70;;;;;;;;;;110211;1249;35053;-30
2022/09/16 10:13:54;;;;;;;2.50;0.70;;;;;;;;;;110219;1250;35485;-30
2022/09/16 10:16:28;;;;;;;2.20;0.60;;;;;;;;;;110230;1249;36460;-29
2022/09/16 10:19:05;;;;;;;3.30;0.70;;;;;;;;;;110181;1249;36301;-29
2022/09/16 10:21:46;;;;;;;3.80;0.80;;;;;;;;;;110214;1249;36835;-29
2022/09/16 10:24:32;;;;;;;2.20;0.80;;;;;;;;;;110219;1249;35142;-29
2022/09/16 10:27:18;;;;;;;1.80;0.60;;;;;;;;;;110242;1250;36821;-30
2022/09/16 10:30:02;;;;;;;2.00;0.50;;;;;;;;;;110182;1250;36857;-30
2022/09/16 10:32:37;;;;;;;2.20;0.70;;;;;;;;;;110205;1250;36842;-30
2022/09/16 10:35:15;;;;;;;2.80;0.60;;;;;;;;;;110130;1250;36266;-28
2022/09/16 10:37:51;;;;;;;4.40;0.70;;;;;;;;;;110126;1250;37110;-29
2022/09/16 10:40:23;;;;;;;2.70;0.60;;;;;;;;;;110143;1250;40680;-29
2022/09/16 10:42:59;;;;;;;2.10;0.60;;;;;;;;;;110228;1250;37092;-31
2022/09/16 10:45:34;;;;;;;2.00;0.70;;;;;;;;;;110208;1250;36407;-31
2022/09/16 10:48:12;;;;;;;3.40;0.80;;;;;;;;;;110177;1249;34077;-31
2022/09/16 10:50:53;;;;;;;2.60;0.50;;;;;;;;;;110179;1250;34993;-31
2022/09/16 10:53:30;;;;;;;1.90;0.50;;;;;;;;;;110203;1251;37018;-32
2022/09/16 10:56:06;;;;;;;3.30;0.70;;;;;;;;;;110195;1250;36077;-32
2022/09/16 10:58:37;;;;;;;2.50;0.50;;;;;;;;;;110263;1250;34827;-31
2022/09/16 11:01:29;;;;;;;2.90;0.90;;;;;;;;;;110202;1250;36550;-31
2022/09/16 11:04:28;;;;;;;3.60;1.30;;;;;;;;;;110190;1250;36601;-31
2022/09/16 11:07:10;;;;;;;2.30;0.60;;;;;;;;;;110189;1250;36812;-29
2022/09/16 11:09:52;;;;;;;3.20;0.70;;;;;;;;;;110147;1250;36947;-30
2022/09/16 11:12:39;;;;;;;1.00;0.50;;;;;;;;;;110216;1250;36225;-30
2022/09/16 11:15:22;;;;;;;2.30;0.60;;;;;;;;;;110209;1250;34823;-33
2022/09/16 11:18:09;;;;;;;2.60;0.60;;;;;;;;;;110211;1250;34991;-31
2022/09/16 11:21:12;;;;;;;3.30;0.70;;;;;;;;;;110165;1250;37133;-31
2022/09/16 11:24:07;;;;;;;2.40;0.60;;;;;;;;;;110213;1250;36332;-31
2022/09/16 11:26:48;;;;;;;2.00;0.70;;;;;;;;;;110205;1250;35125;-32
2022/09/16 11:29:40;;;;;;;2.20;0.60;;;;;;;;;;110176;1250;36330;-31
2022/09/16 11:32:20;;;;;;;1.90;0.60;;;;;;;;;;110201;1250;36313;-32
2022/09/16 11:35:12;;;;;;;2.70;0.60;;;;;;;;;;110181;1250;37103;-32
2022/09/16 11:37:49;;;;;;;2.30;0.70;;;;;;;;;;110181;1250;36752;-33
2022/09/16 11:40:31;;;;;;;2.00;0.50;;;;;;;;;;110186;1250;36761;-33
2022/09/16 11:43:13;;;;;;;2.50;0.70;;;;;;;;;;110229;1250;36787;-32
2022/09/16 11:45:52;;;;;;;1.90;0.70;;;;;;;;;;110225;1250;37067;-32
2022/09/16 11:48:39;;;;;;;2.00;0.70;;;;;;;;;;110176;1251;37276;-32
2022/09/16 11:51:22;;;;;;;2.30;0.70;;;;;;;;;;110072;1250;36869;-32
2022/09/16 11:54:09;;;;;;;2.30;0.70;;;;;;;;;;110182;1250;36559;-32
2022/09/16 11:56:46;;;;;;;1.70;0.60;;;;;;;;;;109991;1252;36733;-32
2022/09/16 11:59:24;;;;;;;2.30;0.70;;;;;;;;;;110261;1251;34899;-32
2022/09/16 12:02:03;;;;;;;2.20;0.60;;;;;;;;;;110118;1250;43735;-33
2022/09/16 12:04:40;;;;;;;2.70;0.60;;;;;;;;;;110151;1250;36715;-33
2022/09/16 12:07:19;;;;;;;3.10;0.80;;;;;;;;;;110162;1251;36658;-31
2022/09/16 12:09:54;;;;;;;2.10;0.70;;;;;;;;;;110165;1250;35401;-31
2022/09/16 12:12:29;;;;;;;2.00;0.70;;;;;;;;;;110285;1250;36726;-30
2022/09/16 12:15:02;;;;;;;3.60;1.00;;;;;;;;;;110266;1250;36639;-31
2022/09/16 12:17:35;;;;;;;3.40;0.80;;;;;;;;;;110214;1252;34966;-31
2022/09/16 12:20:07;;;;;;;;;;;;;;;;;;110231;1250;36246;-31
2022/09/16 12:22:47;;;;;;;2.10;0.60;;;;;;;;;;110233;1250;36305;-31
2022/09/16 12:25:22;;;;;;;1.00;0.50;;;;;;;;;;110190;1251;36647;-31
2022/09/16 12:27:57;;;;;;;1.80;0.60;;;;;;;;;;110222;1250;36749;-31
2022/09/16 12:30:35;;;;;;;1.70;0.60;;;;;;;;;;110181;1250;36372;-30
2022/09/16 12:33:14;;;;;;;2.30;0.70;;;;;;;;;;110156;1250;36303;-31
2022/09/16 12:35:54;;;;;;;2.40;0.60;;;;;;;;;;110198;1250;36841;-31
2022/09/16 12:38:25;;;;;;;1.90;0.50;;;;;;;;;;110197;1250;36747;-31
2022/09/16 12:41:12;;;;;;;2.10;0.60;;;;;;;;;;110170;1251;35628;-31
2022/09/16 12:44:13;;;;;;;3.50;0.80;;;;;;;;;;110183;1250;36243;-31
2022/09/16 12:47:09;;;;;;;1.70;0.70;;;;;;;;;;110199;1250;34974;-33
2022/09/16 12:50:04;;;;;;;2.50;0.80;;;;;;;;;;110156;1250;34211;-33
2022/09/16 12:52:53;;;;;;;3.20;0.70;;;;;;;;;;110121;1250;33613;-33
2022/09/16 12:55:52;;;;;;;7.10;1.20;;;;;;;;;;110165;1250;36358;-33
2022/09/16 12:59:07;;;;;;;6.10;1.30;;;;;;;;;;110172;1250;36961;-33
2022/09/16 13:01:43;;;;;;;6.20;1.40;;;;;;;;;;110180;1250;36719;-32
2022/09/16 13:04:18;;;;;;;5.20;1.50;;;;;;;;;;110176;1251;35019;-31
2022/09/16 13:06:54;;;;;;;4.40;1.20;;;;;;;;;;110309;1249;34963;-32
2022/09/16 13:09:32;;;;;;;5.80;1.20;;;;;;;;;;110286;1250;36731;-33
2022/09/16 13:12:18;;;;;;;5.30;1.10;;;;;;;;;;110402;1249;36962;-31
2022/09/16 13:14:51;;;;;;;6.00;1.40;;;;;;;;;;110164;1250;36748;-30
2022/09/16 13:17:31;;;;;;;4.50;1.20;;;;;;;;;;110195;1249;36626;-30
2022/09/16 13:20:13;;;;;;;5.30;1.20;;;;;;;;;;110178;1250;36751;-30
2022/09/16 13:22:48;;;;;;;5.60;1.70;;;;;;;;;;110196;1250;35589;-31
2022/09/16 13:25:26;;;;;;;4.20;1.20;;;;;;;;;;110165;1251;36355;-31
2022/09/16 13:28:22;;;;;;;4.20;1.00;;;;;;;;;;110199;1251;36873;-31
2022/09/16 13:30:53;;;;;;;8.10;1.10;;;;;;;;;;110104;1250;36398;-30
2022/09/16 13:33:29;;;;;;;4.70;1.30;;;;;;;;;;110152;1249;36502;-30
2022/09/16 13:36:16;;;;;;;5.00;1.60;;;;;;;;;;110152;1250;35339;-30
2022/09/16 13:38:50;;;;;;;5.70;1.30;;;;;;;;;;110130;1251;36978;-30
2022/09/16 13:41:34;;;;;;;3.70;1.40;;;;;;;;;;110121;1249;36414;-30
2022/09/16 13:44:25;;;;;;;3.80;1.10;;;;;;;;;;110211;1249;36882;-30
2022/09/16 13:47:06;;;;;;;4.30;1.10;;;;;;;;;;110126;1251;36693;-29
2022/09/16 13:49:44;;;;;;;4.10;1.40;;;;;;;;;;110114;1250;35083;-31
2022/09/16 13:52:20;;;;;;;3.20;0.90;;;;;;;;;;110056;1250;36623;-29
2022/09/16 13:54:53;;;;;;;4.60;1.00;;;;;;;;;;110165;1249;37090;-29
2022/09/16 13:57:47;;;;;;;4.90;1.00;;;;;;;;;;110148;1250;36414;-30
2022/09/16 14:00:21;;;;;;;3.10;1.00;;;;;;;;;;110040;1253;36786;-30
2022/09/16 14:03:32;;;;;;;3.80;0.90;;;;;;;;;;110138;1251;33956;-30
2022/09/16 14:06:18;;;;;;;3.40;0.90;;;;;;;;;;110100;1251;36294;-29
2022/09/16 14:08:57;;;;;;;3.20;0.90;;;;;;;;;;110115;1251;36293;-30
2022/09/16 14:11:39;;;;;;;4.50;1.00;;;;;;;;;;110157;1251;36438;-30
2022/09/16 14:14:14;;;;;;;2.80;1.00;;;;;;;;;;110108;1251;36896;-28
2022/09/16 14:16:49;;;;;;;4.20;0.80;;;;;;;;;;110182;1251;37062;-29
2022/09/16 14:19:30;;;;;;;2.20;0.80;;;;;;;;;;110094;1251;36429;-29
2022/09/16 14:22:05;;;;;;;3.30;0.90;;;;;;;;;;110191;1251;36404;-30
2022/09/16 14:24:40;;;;;;;3.70;1.10;;;;;;;;;;110056;1251;36275;-30
2022/09/16 14:27:22;;;;;;;3.70;0.80;;;;;;;;;;109728;1251;532549;-29
2022/09/16 14:29:57;;;;;;;3.20;0.80;;;;;;;;;;110212;1251;35448;-29
2022/09/16 14:32:32;;;;;;;2.00;0.60;;;;;;;;;;110185;1251;34970;-29
2022/09/16 14:35:10;;;;;;;3.30;0.90;;;;;;;;;;110113;1251;36626;-29
2022/09/16 14:37:44;;;;;;;3.20;0.80;;;;;;;;;;110183;1251;34949;-29
2022/09/16 14:40:18;;;;;;;6.20;1.60;;;;;;;;;;110179;1251;37251;-29
2022/09/16 14:42:52;;;;;;;3.40;0.80;;;;;;;;;;110147;1251;34902;-31
2022/09/16 14:45:23;;;;;;;4.20;0.90;;;;;;;;;;110151;1251;39943;-29
2022/09/16 14:47:57;;;;;;;3.00;0.80;;;;;;;;;;110175;1251;36669;-29
2022/09/16 14:50:31;;;;;;;2.10;0.70;;;;;;;;;;110181;1251;33973;-29
2022/09/16 14:53:07;;;;;;;2.50;1.00;;;;;;;;;;110198;1251;34211;-30
2022/09/16 14:55:39;;;;;;;2.70;1.30;;;;;;;;;;110176;1250;41672;-31
2022/09/16 14:58:12;;;;;;;2.90;0.80;;;;;;;;;;110190;1250;36229;-29
2022/09/16 15:00:47;;;;;;;;;;;;;;;;;;110184;1251;36777;-29
2022/09/16 15:03:23;;;;;;;2.40;0.80;;;;;;;;;;110106;1253;36079;-29
2022/09/16 15:06:03;;;;;;;2.70;0.90;;;;;;;;;;110110;1252;36725;-29
2022/09/16 15:08:41;;;;;;;2.60;0.90;;;;;;;;;;110042;1252;36650;-29
2022/09/16 15:11:18;;;;;;;3.00;0.80;;;;;;;;;;110035;1251;36672;-29
2022/09/16 15:13:48;;;;;;;3.50;0.80;;;;;;;;;;110097;1251;34285;-28
2022/09/16 15:16:22;;;;;;;4.10;0.80;;;;;;;;;;110134;1250;34374;-29
2022/09/16 15:18:54;;;;;;;;;;;;;;;;;;110210;1251;36572;-29
2022/09/16 15:21:30;;;;;;;2.00;0.70;;;;;;;;;;110171;1251;35868;-30
2022/09/16 15:24:02;;;;;;;3.00;0.80;;;;;;;;;;110152;1251;36687;-29
2022/09/16 15:26:42;;;;;;;3.00;0.70;;;;;;;;;;110175;1250;36266;-30